Time;durP1;ratioP1;P1;durP2;ratioP2;P2;SDS_P1;SDS_P2;PMS_P1;PMS_P2;Temp;Humidity;BMP_temperature;BMP_pressure;BME280_temperature;BME280_humidity;BME280_pressure;Samples;Min_cycle;Max_cycle;Signal;HPM_P1;HPM_P2
2023/10/05 00:01:02;;;;;;;;;2.50;2.50;;;;;22.36;40.63;102145.50;4902389;29;45500;-47
2023/10/05 00:03:30;;;;;;;;;4.75;4.25;;;;;22.36;40.42;102145.50;4902570;28;45349;-47
2023/10/05 00:06:03;;;;;;;;;4.75;2.00;;;;;22.35;40.50;102151.72;4902912;28;45846;-46
2023/10/05 00:08:29;;;;;;;;;4.00;2.00;;;;;22.35;40.52;102149.06;4902473;29;46484;-46
2023/10/05 00:10:54;;;;;;;;;7.00;3.00;;;;;22.34;40.56;102142.06;4902563;28;45278;-47
2023/10/05 00:13:19;;;;;;;;;2.75;2.75;;;;;22.35;40.38;102141.16;4902628;28;45438;-47
2023/10/05 00:15:45;;;;;;;;;2.75;2.75;;;;;22.33;40.42;102135.06;4902952;28;45523;-47
2023/10/05 00:18:14;;;;;;;;;4.25;2.50;;;;;22.34;40.63;102128.88;4902271;28;47271;-49
2023/10/05 00:20:41;;;;;;;;;4.75;3.75;;;;;22.31;40.34;102131.66;4902425;28;45279;-48
2023/10/05 00:23:10;;;;;;;;;4.00;4.00;;;;;22.32;40.50;102128.94;4902606;28;45379;-47
2023/10/05 00:25:37;;;;;;;;;4.75;3.50;;;;;22.31;40.19;102131.66;4902405;28;45263;-47
2023/10/05 00:28:09;;;;;;;;;4.50;3.50;;;;;22.32;40.66;102141.31;4901977;28;45372;-49
2023/10/05 00:30:35;;;;;;;;;5.00;3.75;;;;;22.31;40.62;102145.72;4902141;28;45799;-46
2023/10/05 00:33:00;;;;;;;;;5.50;2.50;;;;;22.31;40.33;102142.22;4902244;28;45807;-47
2023/10/05 00:35:28;;;;;;;;;3.75;3.00;;;;;22.31;40.54;102144.88;4902398;29;45588;-47
2023/10/05 00:37:57;;;;;;;;;6.00;4.00;;;;;22.32;40.42;102141.31;4902107;28;46537;-48
2023/10/05 00:40:43;;;;;;;;;3.25;2.25;;;;;22.30;40.77;102140.50;4902146;28;45404;-48
2023/10/05 00:43:21;;;;;;;;;4.50;3.50;;;;;22.30;40.35;102149.28;4902056;28;45447;-48
2023/10/05 00:45:47;;;;;;;;;3.00;3.00;;;;;22.30;40.47;102145.78;4902231;28;45590;-44
2023/10/05 00:48:26;;;;;;;;;3.00;3.00;;;;;22.29;40.75;102147.56;4901996;28;45977;-43
2023/10/05 00:50:53;;;;;;;;;3.00;2.00;;;;;22.29;40.40;102136.16;4902033;28;46005;-46
2023/10/05 00:53:19;;;;;;;;;6.00;3.00;;;;;22.30;40.51;102135.22;4902065;28;45299;-43
2023/10/05 00:55:52;;;;;;;;;3.00;2.00;;;;;22.29;40.60;102120.28;4902375;28;45718;-45
2023/10/05 00:58:17;;;;;;;;;2.00;1.00;;;;;22.28;40.46;102123.84;4901929;28;46377;-44
2023/10/05 01:00:52;;;;;;;;;3.00;3.00;;;;;22.27;40.78;102120.34;4901716;28;45589;-48
2023/10/05 01:03:33;;;;;;;;;4.00;2.75;;;;;22.25;40.38;102124.84;4902135;28;45430;-45
2023/10/05 01:08:54;;;;;;;;;4.75;3.50;;;;;22.21;40.56;102132.03;4901721;29;45267;-46
2023/10/05 01:11:33;;;;;;;;;3.00;3.00;;;;;22.22;40.89;102138.19;4900843;28;45715;-41
2023/10/05 01:14:00;;;;;;;;;5.00;3.50;;;;;22.23;40.70;102138.09;4901697;28;45335;-42
2023/10/05 01:16:26;;;;;;;;;4.00;3.00;;;;;22.24;41.02;102146.91;4901795;28;45343;-43
2023/10/05 01:18:52;;;;;;;;;4.00;4.00;;;;;22.24;40.96;102141.63;4901496;28;46126;-45
2023/10/05 01:21:18;;;;;;;;;6.75;3.00;;;;;22.23;40.87;102147.81;4901860;28;45303;-45
2023/10/05 01:23:47;;;;;;;;;4.50;2.75;;;;;22.22;40.90;102136.38;4901650;29;45347;-45
2023/10/05 01:26:12;;;;;;;;;3.50;3.50;;;;;22.23;40.68;102130.19;4901719;28;45390;-48
2023/10/05 01:28:41;;;;;;;;;5.25;3.00;;;;;22.23;40.60;102132.81;4901179;28;46610;-45
2023/10/05 01:31:09;;;;;;;;;3.00;3.00;;;;;22.22;41.01;102133.75;4901322;29;45876;-45
2023/10/05 01:33:35;;;;;;;;;5.25;3.00;;;;;22.21;40.96;102132.03;4901422;28;45334;-46
2023/10/05 01:36:03;;;;;;;;;4.25;3.00;;;;;22.20;40.53;102124.19;4901690;28;45728;-44
2023/10/05 01:38:29;;;;;;;;;3.50;3.50;;;;;22.21;40.80;102118.81;4901056;28;46487;-45
2023/10/05 01:40:58;;;;;;;;;3.00;3.00;;;;;22.21;40.67;102116.19;4899805;29;45590;-43
2023/10/05 01:43:28;;;;;;;;;4.25;4.25;;;;;22.20;41.02;102106.56;4901165;28;45165;-43
2023/10/05 01:45:54;;;;;;;;;3.50;3.00;;;;;22.21;40.94;102105.63;4901189;28;45311;-42
2023/10/05 01:48:25;;;;;;;;;5.25;4.00;;;;;22.19;40.94;102107.50;4900031;29;47010;-42
2023/10/05 01:50:51;;;;;;;;;3.00;3.00;;;;;22.18;41.02;102105.75;4901525;29;46008;-44
2023/10/05 01:53:19;;;;;;;;;5.75;4.25;;;;;22.18;40.92;102104.88;4901196;29;45306;-42
2023/10/05 01:55:45;;;;;;;;;3.00;1.75;;;;;22.17;40.87;102111.97;4901311;28;45477;-41
2023/10/05 01:58:26;;;;;;;;;4.25;3.00;;;;;22.18;40.95;102107.53;4900740;28;46644;-45
2023/10/05 02:00:53;;;;;;;;;3.25;3.00;;;;;22.18;41.10;102115.44;4901119;28;45987;-43
2023/10/05 02:03:23;;;;;;;;;2.50;1.50;;;;;22.18;40.90;102126.00;4901345;28;45299;-44
2023/10/05 02:05:48;;;;;;;;;4.25;3.00;;;;;22.17;41.15;102119.88;4901327;28;45304;-48
2023/10/05 02:08:20;;;;;;;;;3.75;3.00;;;;;22.18;41.25;102126.00;4900597;29;45267;-48
2023/10/05 02:10:47;;;;;;;;;4.00;2.25;;;;;22.18;41.11;102121.59;4899669;29;45948;-44
2023/10/05 02:13:13;;;;;;;;;4.50;3.50;;;;;22.17;41.15;102119.88;4900781;29;45447;-44
2023/10/05 02:15:39;;;;;;;;;5.00;3.00;;;;;22.18;40.90;102111.03;4901010;28;45229;-50
2023/10/05 02:18:18;;;;;;;;;4.00;4.00;;;;;22.16;40.96;102106.75;4900604;28;47418;-44
2023/10/05 02:20:44;;;;;;;;;4.75;3.25;;;;;22.18;41.08;102102.25;4900576;28;45361;-47
2023/10/05 02:23:24;;;;;;;;;2.50;2.50;;;;;22.16;41.24;102091.75;4900611;28;45419;-44
2023/10/05 02:25:54;;;;;;;;;4.75;3.50;;;;;22.16;40.92;102097.03;4900894;28;45394;-44
2023/10/05 02:28:25;;;;;;;;;4.00;4.00;;;;;22.15;41.31;102100.59;4900553;28;46670;-45
2023/10/05 02:30:51;;;;;;;;;5.00;3.00;;;;;22.17;41.20;102100.53;4900668;28;45284;-43
2023/10/05 02:33:20;;;;;;;;;4.50;3.00;;;;;22.16;40.90;102102.31;4900560;29;45382;-43
2023/10/05 02:35:48;;;;;;;;;5.00;3.25;;;;;22.16;41.11;102106.75;4900649;28;45378;-43
2023/10/05 02:38:18;;;;;;;;;5.75;4.50;;;;;22.16;41.07;102101.47;4900218;28;46895;-44
2023/10/05 02:40:54;;;;;;;;;3.25;2.00;;;;;22.15;41.47;102097.97;4900387;29;46031;-48
2023/10/05 02:43:26;;;;;;;;;3.75;3.00;;;;;22.15;41.17;102095.31;4900706;28;45378;-46
2023/10/05 02:45:55;;;;;;;;;4.00;4.00;;;;;22.15;41.10;102103.25;4900813;29;45284;-46
2023/10/05 02:48:21;;;;;;;;;3.75;3.75;;;;;22.15;41.01;102095.31;4900250;29;46210;-46
2023/10/05 02:50:51;;;;;;;;;3.75;2.50;;;;;22.15;41.00;102100.59;4900230;28;45413;-44
2023/10/05 02:53:18;;;;;;;;;6.00;2.00;;;;;22.15;41.45;102100.59;4898949;29;45261;-44
2023/10/05 02:55:44;;;;;;;;;4.25;2.75;;;;;22.15;41.45;102099.75;4900446;29;45554;-43
2023/10/05 02:58:13;;;;;;;;;2.25;2.00;;;;;22.15;41.27;102103.25;4899956;28;46174;-45
2023/10/05 03:00:38;;;;;;;;;7.00;3.00;;;;;22.16;41.29;102101.47;4899969;28;45679;-46
2023/10/05 03:03:05;;;;;;;;;7.00;3.00;;;;;22.16;41.04;102097.03;4900091;28;45275;-43
2023/10/05 03:05:35;;;;;;;;;3.00;3.00;;;;;22.17;41.29;102097.88;4900122;28;45249;-48
2023/10/05 03:08:00;;;;;;;;;3.50;2.00;;;;;22.17;40.97;102097.88;4899920;28;46635;-49
2023/10/05 03:10:26;;;;;;;;;2.00;2.00;;;;;22.16;41.10;102093.56;4900175;29;45302;-45
2023/10/05 03:12:51;;;;;;;;;3.00;2.00;;;;;22.17;40.92;102097.88;4900327;28;45377;-47
2023/10/05 03:15:22;;;;;;;;;5.00;3.00;;;;;22.17;40.89;102098.75;4900074;28;45668;-49
2023/10/05 03:17:48;;;;;;;;;5.00;2.00;;;;;22.17;41.24;102090.84;4899577;28;46338;-50
2023/10/05 03:20:18;;;;;;;;;4.00;3.00;;;;;22.17;41.10;102089.97;4899744;28;45450;-45
2023/10/05 03:22:46;;;;;;;;;3.00;2.00;;;;;22.17;40.91;102084.69;4914506;28;45260;-47
2023/10/05 03:25:14;;;;;;;;;5.25;3.00;;;;;22.17;41.13;102080.28;4899874;28;45576;-46
2023/10/05 03:27:40;;;;;;;;;4.00;3.00;;;;;22.16;40.83;102083.84;4899428;29;46445;-49
2023/10/05 03:30:06;;;;;;;;;6.00;3.50;;;;;22.16;40.87;102083.84;4899636;29;45391;-49
2023/10/05 03:32:35;;;;;;;;;2.75;2.75;;;;;22.15;41.13;102074.19;4899951;28;45588;-48
2023/10/05 03:35:00;;;;;;;;;3.00;2.00;;;;;22.16;41.13;102090.91;4901861;29;45177;-48
2023/10/05 03:37:29;;;;;;;;;2.50;2.00;;;;;22.15;41.07;102094.47;4902906;29;57588;-46
2023/10/05 03:42:29;;;;;;;;;2.00;2.00;;;;;22.14;41.00;102077.75;4903038;28;45429;-46
2023/10/05 03:45:04;;;;;;;;;2.00;2.00;;;;;22.14;41.13;102083.03;4903364;28;45420;-46
2023/10/05 03:47:37;;;;;;;;;2.00;2.00;;;;;22.14;41.01;102087.47;4902707;28;46590;-46
2023/10/05 03:50:04;;;;;;;;;2.75;2.00;;;;;22.14;40.92;102084.84;4902686;28;45784;-42
2023/10/05 03:52:35;;;;;;;;;4.75;3.00;;;;;22.12;40.78;102092.81;4902999;29;45500;-45
2023/10/05 03:55:09;;;;;;;;;2.00;0.75;;;;;22.14;40.82;102095.41;4903144;29;45391;-44
2023/10/05 03:57:35;;;;;;;;;4.75;2.25;;;;;22.13;40.96;102104.25;4902443;28;46263;-46
2023/10/05 04:00:18;;;;;;;;;1.75;1.75;;;;;22.12;40.95;102106.00;4902636;28;45385;-47
2023/10/05 04:02:44;;;;;;;;;2.50;2.00;;;;;22.12;40.61;102113.09;4902926;28;45794;-45
2023/10/05 04:05:11;;;;;;;;;2.00;2.00;;;;;22.12;40.83;102111.28;4902760;29;45278;-44
2023/10/05 04:07:40;;;;;;;;;2.50;1.00;;;;;22.12;40.89;102106.00;4902496;28;45582;-44
2023/10/05 04:10:07;;;;;;;;;1.50;1.50;;;;;22.12;40.74;102100.72;4902449;29;45767;-45
2023/10/05 04:12:32;;;;;;;;;4.25;3.00;;;;;22.12;40.86;102100.72;4902539;28;45173;-44
2023/10/05 04:15:00;;;;;;;;;2.50;2.50;;;;;22.11;41.03;102099.00;4902942;29;45558;-43
2023/10/05 04:17:26;;;;;;;;;2.00;2.00;;;;;22.11;40.95;102093.72;4902703;28;47087;-46
2023/10/05 04:19:52;;;;;;;;;2.50;2.00;;;;;22.12;41.00;102097.25;4900968;29;45830;-46
2023/10/05 04:22:18;;;;;;;;;3.00;2.00;;;;;22.12;40.93;102102.53;4902341;28;45412;-44
2023/10/05 04:24:44;;;;;;;;;1.00;1.00;;;;;22.10;40.86;102099.97;4902509;29;45380;-44
2023/10/05 04:27:10;;;;;;;;;2.00;2.00;;;;;22.08;40.83;102091.25;4901651;28;46479;-42
2023/10/05 04:29:37;;;;;;;;;1.75;1.75;;;;;22.10;40.86;102107.88;4902406;28;45541;-41
2023/10/05 04:32:03;;;;;;;;;3.00;1.00;;;;;22.11;40.94;102119.28;4902424;28;45447;-42
2023/10/05 04:34:31;;;;;;;;;2.00;2.00;;;;;22.10;41.09;102123.72;4902675;28;45285;-42
2023/10/05 04:36:57;;;;;;;;;0.50;0.50;;;;;22.10;41.07;102118.44;4902460;28;45368;-42
2023/10/05 04:39:29;;;;;;;;;2.00;2.00;;;;;22.11;40.97;102119.28;4902006;28;45848;-45
2023/10/05 04:41:56;;;;;;;;;1.00;1.00;;;;;22.08;40.87;102115.00;4902141;28;45323;-42
2023/10/05 04:44:21;;;;;;;;;2.50;2.50;;;;;22.11;40.67;102114.00;4902225;28;45329;-46
2023/10/05 04:46:49;;;;;;;;;2.50;2.00;;;;;22.08;41.20;102110.56;4915211;28;47536;-47
2023/10/05 04:49:16;;;;;;;;;3.00;1.75;;;;;22.10;41.30;102107.88;4901832;28;45323;-48
2023/10/05 04:51:41;;;;;;;;;3.75;2.00;;;;;22.11;41.09;102116.66;4902293;28;45438;-45
2023/10/05 04:54:10;;;;;;;;;2.00;2.00;;;;;22.09;41.22;102109.66;4902170;28;45245;-46
2023/10/05 04:56:40;;;;;;;;;3.00;3.00;;;;;22.09;40.95;102104.38;4901530;28;46122;-46
2023/10/05 05:04:41;;;;;;;;;3.00;1.75;;;;;22.08;41.09;102088.59;4901839;28;45380;-46
2023/10/05 05:07:10;;;;;;;;;2.75;2.75;;;;;22.06;41.21;102088.63;4901545;28;46631;-45
2023/10/05 05:09:39;;;;;;;;;3.00;2.00;;;;;22.08;41.62;102091.25;4901550;28;45406;-46
2023/10/05 05:12:16;;;;;;;;;2.00;2.00;;;;;22.05;41.88;102089.56;4900573;29;45198;-43
2023/10/05 05:14:42;;;;;;;;;3.00;3.00;;;;;22.05;41.61;102089.56;4901750;28;45267;-46
2023/10/05 05:17:11;;;;;;;;;3.00;3.00;;;;;22.05;42.00;102094.84;4901457;29;45671;-47
2023/10/05 05:19:39;;;;;;;;;2.00;2.00;;;;;22.04;41.77;102092.28;4901455;29;45440;-47
2023/10/05 05:22:05;;;;;;;;;4.00;2.75;;;;;22.04;41.60;102097.56;4901652;28;45446;-46
2023/10/05 05:24:31;;;;;;;;;5.75;3.00;;;;;22.02;41.64;102097.63;4901966;28;45309;-44
2023/10/05 05:27:00;;;;;;;;;2.00;2.00;;;;;22.03;41.96;102096.72;4901266;29;46613;-44
2023/10/05 05:29:35;;;;;;;;;2.50;2.00;;;;;22.04;41.78;102092.28;4899908;29;45371;-44
2023/10/05 05:32:09;;;;;;;;;4.75;1.75;;;;;22.02;41.90;102086.19;4901317;29;57814;-42
2023/10/05 05:34:35;;;;;;;;;3.00;1.75;;;;;22.01;41.84;102088.00;4901612;28;45450;-43
2023/10/05 05:37:00;;;;;;;;;2.50;2.00;;;;;22.03;41.64;102093.19;4901419;28;45438;-46
2023/10/05 05:39:26;;;;;;;;;1.00;1.00;;;;;22.03;41.86;102090.56;4901088;28;47828;-45
2023/10/05 05:42:06;;;;;;;;;2.25;2.25;;;;;22.00;41.76;102091.56;4901386;28;45418;-47
2023/10/05 05:44:34;;;;;;;;;3.75;2.00;;;;;22.01;41.58;102088.00;4901687;28;45320;-48
2023/10/05 05:47:07;;;;;;;;;4.75;3.75;;;;;22.02;41.50;102094.13;4901230;28;46325;-47
2023/10/05 05:49:34;;;;;;;;;2.50;2.50;;;;;22.01;41.50;102095.03;4901312;28;45343;-43
2023/10/05 05:51:59;;;;;;;;;2.00;2.00;;;;;22.00;41.22;102094.19;4901136;28;45331;-44
2023/10/05 05:54:29;;;;;;;;;2.50;2.00;;;;;22.01;41.55;102108.25;4901202;28;45282;-44
2023/10/05 05:56:55;;;;;;;;;5.25;3.00;;;;;22.01;41.76;102111.75;4900572;28;45452;-44
2023/10/05 05:59:22;;;;;;;;;2.00;2.00;;;;;22.00;41.83;102109.16;4900960;29;45792;-42
2023/10/05 06:01:48;;;;;;;;;1.50;1.50;;;;;21.99;41.72;102115.38;4900932;28;45291;-46
2023/10/05 06:04:14;;;;;;;;;2.75;2.00;;;;;21.99;41.52;102113.59;4900965;28;45455;-48
2023/10/05 06:06:39;;;;;;;;;4.25;2.00;;;;;22.00;41.60;102122.34;4900749;28;46154;-46
2023/10/05 06:09:07;;;;;;;;;2.75;2.00;;;;;21.98;41.34;102119.78;4901151;28;45328;-45
2023/10/05 06:11:34;;;;;;;;;6.00;2.00;;;;;22.00;41.47;102132.91;4901145;28;45269;-45
2023/10/05 06:14:00;;;;;;;;;5.00;2.50;;;;;21.98;41.55;102124.22;4901014;28;45176;-49
2023/10/05 06:16:25;;;;;;;;;3.25;2.50;;;;;21.98;41.51;102134.78;4900432;29;46343;-46
2023/10/05 06:18:51;;;;;;;;;3.00;2.00;;;;;21.98;41.36;102134.78;4900388;29;50199;-44
2023/10/05 06:21:17;;;;;;;;;3.00;2.00;;;;;22.00;41.70;102135.56;4915468;28;45435;-48
2023/10/05 06:23:42;;;;;;;;;7.00;4.00;;;;;21.98;41.42;102140.06;4900790;29;45622;-45
2023/10/05 06:26:07;;;;;;;;;6.25;3.00;;;;;21.97;41.59;102141.81;4899161;29;46286;-43
2023/10/05 06:28:33;;;;;;;;;5.75;2.75;;;;;21.98;41.65;102142.69;4900330;28;45441;-44
2023/10/05 06:30:58;;;;;;;;;3.00;2.00;;;;;21.98;41.60;102135.63;4900551;29;45351;-46
2023/10/05 06:33:25;;;;;;;;;4.00;3.00;;;;;21.95;41.63;102129.63;4900663;29;45366;-45
2023/10/05 06:35:50;;;;;;;;;2.75;2.00;;;;;21.98;41.49;102129.50;4900304;28;47523;-46
2023/10/05 06:38:16;;;;;;;;;2.25;2.25;;;;;21.98;41.47;102129.50;4900248;28;45275;-46
2023/10/05 06:40:42;;;;;;;;;2.00;2.00;;;;;21.97;41.55;102117.22;4900431;28;45339;-47
2023/10/05 06:43:07;;;;;;;;;2.50;2.50;;;;;21.96;41.24;102115.50;4900626;29;45297;-44
2023/10/05 06:45:33;;;;;;;;;2.75;2.75;;;;;21.98;41.66;102129.50;4900337;28;46347;-46
2023/10/05 06:47:58;;;;;;;;;2.00;2.00;;;;;21.95;41.33;102135.75;4900229;28;45282;-48
2023/10/05 06:50:26;;;;;;;;;2.75;2.25;;;;;21.97;41.55;102149.75;4900372;28;45368;-47
2023/10/05 06:52:52;;;;;;;;;3.00;3.00;;;;;21.97;41.45;102156.81;4899670;29;57282;-47
2023/10/05 06:55:18;;;;;;;;;2.00;2.00;;;;;21.97;41.57;102151.53;4900122;29;45571;-43
2023/10/05 06:57:45;;;;;;;;;5.00;3.00;;;;;21.98;41.97;102154.09;4900111;29;45693;-48
2023/10/05 07:00:16;;;;;;;;;3.00;3.00;;;;;21.99;41.85;102154.97;4900176;29;45331;-47
2023/10/05 07:02:45;;;;;;;;;2.25;2.25;;;;;21.99;41.48;102149.72;4900182;28;45263;-44
2023/10/05 07:05:11;;;;;;;;;4.00;3.00;;;;;21.98;41.41;102145.34;4899838;28;46130;-43
2023/10/05 07:07:37;;;;;;;;;3.25;3.00;;;;;22.00;41.57;102144.34;4900083;29;45939;-43
2023/10/05 07:10:04;;;;;;;;;4.25;3.00;;;;;22.00;41.59;102154.03;4899118;29;45430;-44
2023/10/05 07:12:31;;;;;;;;;3.25;3.25;;;;;22.00;41.66;102154.91;4900076;28;45233;-45
2023/10/05 07:14:57;;;;;;;;;7.25;5.00;;;;;22.00;41.50;102161.94;4899686;28;46184;-44
2023/10/05 07:17:23;;;;;;;;;3.00;3.00;;;;;22.00;41.47;102159.31;4899671;28;45484;-44
2023/10/05 07:19:49;;;;;;;;;2.75;2.75;;;;;22.00;41.51;102164.59;4899587;29;45487;-48
2023/10/05 07:22:16;;;;;;;;;2.00;2.00;;;;;21.99;41.61;102173.47;4899987;28;45395;-45
2023/10/05 07:24:42;;;;;;;;;4.00;2.00;;;;;22.00;41.86;102167.22;4899374;28;47353;-42
2023/10/05 07:27:07;;;;;;;;;3.00;2.75;;;;;22.00;41.51;102175.16;4899978;28;45349;-45
2023/10/05 07:29:32;;;;;;;;;7.25;3.50;;;;;21.99;41.67;102168.19;4898519;29;45287;-43
2023/10/05 07:31:58;;;;;;;;;4.75;3.00;;;;;21.99;41.78;102163.75;4900010;28;45593;-43
2023/10/05 07:34:23;;;;;;;;;3.75;3.75;;;;;22.00;41.66;102159.31;4899529;29;47544;-44
2023/10/05 07:36:50;;;;;;;;;4.25;3.25;;;;;22.01;41.67;102158.41;4899575;28;45192;-45
2023/10/05 07:39:16;;;;;;;;;5.00;3.00;;;;;22.01;41.66;102161.03;4899804;28;45387;-44
2023/10/05 07:41:44;;;;;;;;;4.50;4.00;;;;;22.01;41.63;102163.69;4899804;28;45464;-45
2023/10/05 07:44:09;;;;;;;;;3.00;3.00;;;;;22.02;41.65;102162.75;4899513;28;47087;-44
2023/10/05 07:46:34;;;;;;;;;4.25;3.00;;;;;22.02;41.98;102168.91;4899433;29;45418;-45
2023/10/05 07:48:59;;;;;;;;;4.00;4.00;;;;;22.03;41.85;102177.69;4899257;28;45466;-46
2023/10/05 07:51:25;;;;;;;;;4.00;4.00;;;;;22.04;41.83;102189.97;4898976;29;56148;-45
2023/10/05 07:53:51;;;;;;;;;3.75;3.75;;;;;22.05;41.84;102199.59;4899115;29;53838;-47
2023/10/05 07:56:16;;;;;;;;;5.00;3.50;;;;;22.05;41.59;102191.69;4899429;28;45402;-45
2023/10/05 07:58:44;;;;;;;;;5.00;5.00;;;;;22.05;41.54;102189.03;4899405;28;45429;-42
2023/10/05 08:01:10;;;;;;;;;7.25;4.00;;;;;22.04;41.35;102184.69;4900032;28;45584;-43
2023/10/05 08:03:39;;;;;;;;;4.75;4.25;;;;;22.01;41.86;102172.47;4899126;28;45386;-45
2023/10/05 08:06:05;;;;;;;;;5.00;5.00;;;;;22.04;41.91;102167.06;4899156;28;45408;-45
2023/10/05 08:08:30;;;;;;;;;6.75;5.00;;;;;22.03;41.93;102178.56;4899268;28;45390;-42
2023/10/05 08:10:56;;;;;;;;;4.00;4.00;;;;;22.02;41.75;102183.88;4899385;28;45437;-45
2023/10/05 08:13:22;;;;;;;;;5.50;4.25;;;;;22.04;41.84;102189.97;4898957;28;47221;-47
2023/10/05 08:15:48;;;;;;;;;7.25;4.50;;;;;22.04;41.55;102189.97;4899299;28;45189;-46
2023/10/05 08:18:13;;;;;;;;;7.50;3.00;;;;;22.03;41.85;102198.78;4899532;29;45411;-43
2023/10/05 08:20:38;;;;;;;;;3.75;3.00;;;;;22.04;41.53;102213.72;4901019;29;45233;-44
2023/10/05 08:23:04;;;;;;;;;4.00;4.00;;;;;22.06;41.68;102214.53;4902198;29;45457;-45
2023/10/05 08:25:30;;;;;;;;;5.50;5.00;;;;;22.05;41.63;102220.72;4902217;29;45343;-44
2023/10/05 08:27:55;;;;;;;;;4.75;4.75;;;;;22.05;41.75;102226.00;4902237;28;45486;-45
2023/10/05 08:30:24;;;;;;;;;2.50;2.50;;;;;22.04;41.61;102227.81;4902383;28;45216;-45
2023/10/05 08:32:50;;;;;;;;;4.75;3.25;;;;;22.05;41.68;102247.97;4902109;28;46265;-45
